Time;durP1;ratioP1;P1;durP2;ratioP2;P2;SDS_P1;SDS_P2;PMS_P1;PMS_P2;Temp;Humidity;BMP_temperature;BMP_pressure;BME280_temperature;BME280_humidity;BME280_pressure;Samples;Min_cycle;Max_cycle;Signal;HPM_P1;HPM_P2
2021/05/21 00:01:22;;;;;;;2.60;0.75;;;;;;;13.00;63.66;99501.34;5055408;28;20045;-71
2021/05/21 00:03:48;;;;;;;5.13;0.95;;;;;;;13.01;64.16;99496.81;5056090;28;20053;-71
2021/05/21 00:06:15;;;;;;;3.97;0.85;;;;;;;13.01;63.68;99488.78;5056106;28;20045;-71
2021/05/21 00:08:42;;;;;;;1.75;0.80;;;;;;;13.02;63.96;99503.88;5054842;28;20421;-71
2021/05/21 00:11:08;;;;;;;3.47;0.70;;;;;;;13.01;63.94;99497.66;5055969;28;20045;-71
2021/05/21 00:13:35;;;;;;;3.30;0.82;;;;;;;13.03;63.42;99493.03;5056009;28;20117;-71
2021/05/21 00:16:02;;;;;;;1.17;0.70;;;;;;;12.99;64.17;99478.19;5055828;28;20048;-71
2021/05/21 00:18:29;;;;;;;3.67;1.20;;;;;;;12.90;64.29;99481.63;5045939;28;20450;-71
2021/05/21 00:20:55;;;;;;;3.63;0.90;;;;;;;12.97;63.78;99474.78;5035127;28;20053;-71
2021/05/21 00:23:22;;;;;;;2.55;0.90;;;;;;;13.06;63.51;99494.59;5035805;28;20144;-71
2021/05/21 00:25:49;;;;;;;2.13;0.73;;;;;;;13.10;63.27;99489.84;5035687;28;20045;-71
2021/05/21 00:28:15;;;;;;;2.78;1.52;;;;;;;13.02;63.55;99482.47;5036206;28;20045;-71
2021/05/21 00:30:42;;;;;;;1.73;0.88;;;;;;;13.06;63.37;99472.34;5036062;28;20057;-71
2021/05/21 00:33:09;;;;;;;3.08;0.75;;;;;;;13.01;63.75;99470.88;5035110;28;20053;-71
2021/05/21 00:35:36;;;;;;;5.60;0.88;;;;;;;13.08;63.52;99465.84;5035831;28;20049;-71
2021/05/21 00:38:03;;;;;;;3.45;0.80;;;;;;;12.97;63.90;99441.81;5035730;28;20092;-71
2021/05/21 00:40:30;;;;;;;7.97;1.00;;;;;;;13.03;63.52;99450.16;5035381;28;20049;-71
2021/05/21 00:42:57;;;;;;;2.55;0.75;;;;;;;13.03;63.31;99441.28;5035629;28;20059;-71
2021/05/21 00:45:23;;;;;;;2.40;0.80;;;;;;;13.08;62.45;99431.03;5036316;28;20072;-71
2021/05/21 00:47:50;;;;;;;1.95;0.80;;;;;;;13.07;63.07;99440.03;5037757;28;20431;-71
2021/05/21 00:50:17;;;;;;;2.38;0.90;;;;;;;13.08;62.62;99430.19;5037218;28;20049;-71
2021/05/21 00:52:44;;;;;;;4.82;0.77;;;;;;;13.02;62.74;99418.16;5035060;28;20053;-71
2021/05/21 00:55:11;;;;;;;4.55;1.17;;;;;;;13.03;63.11;99415.34;5034681;28;20053;-70
2021/05/21 00:57:41;;;;;;;3.03;0.90;;;;;;;12.98;62.63;99396.16;5036296;28;20053;-70
2021/05/21 01:00:08;;;;;;;3.70;1.05;;;;;;;12.97;63.27;99406.97;5036392;28;20510;-70
2021/05/21 01:02:35;;;;;;;2.03;0.70;;;;;;;12.86;63.31;99381.09;5035208;28;20057;-70
2021/05/21 01:05:05;;;;;;;3.00;1.02;;;;;;;12.96;63.24;99392.72;5035067;28;20061;-70
2021/05/21 01:07:31;;;;;;;4.03;0.90;;;;;;;12.83;63.74;99381.34;5035450;28;20049;-71
2021/05/21 01:09:58;;;;;;;3.17;0.90;;;;;;;12.82;64.43;99388.53;5034185;28;20061;-69
2021/05/21 01:12:25;;;;;;;4.15;0.80;;;;;;;12.80;64.23;99387.78;5035261;28;20049;-72
2021/05/21 01:14:56;;;;;;;5.70;0.70;;;;;;;12.83;64.73;99392.91;5034157;28;20504;-71
2021/05/21 01:17:24;;;;;;;2.83;1.00;;;;;;;12.77;64.49;99378.19;5036028;28;20057;-70
2021/05/21 01:19:52;;;;;;;1.52;0.80;;;;;;;12.79;63.93;99367.34;5054823;28;20056;-70
2021/05/21 01:22:19;;;;;;;4.30;0.90;;;;;;;12.80;64.45;99369.03;5053954;28;20545;-70
2021/05/21 01:24:46;;;;;;;1.75;0.77;;;;;;;12.75;64.27;99361.41;5054857;28;20056;-70
2021/05/21 01:27:13;;;;;;;2.55;0.80;;;;;;;12.71;64.17;99349.28;5054926;28;20053;-70
2021/05/21 01:29:40;;;;;;;2.22;0.90;;;;;;;12.75;64.64;99363.25;5055103;28;20403;-71
2021/05/21 01:32:09;;;;;;;2.47;1.00;;;;;;;12.73;64.58;99351.78;5056929;28;20057;-70
2021/05/21 01:34:38;;;;;;;4.10;0.88;;;;;;;12.69;65.01;99363.75;5059210;28;20053;-70
2021/05/21 01:37:19;;;;;;;4.45;0.77;;;;;;;12.61;65.40;99353.66;5059179;28;20068;-71
2021/05/21 01:39:47;;;;;;;;;;;;;;;12.64;65.19;99350.72;5059132;28;20071;-71
2021/05/21 01:42:15;;;;;;;4.60;0.90;;;;;;;12.51;65.69;99345.53;5058613;28;19979;-70
2021/05/21 01:44:42;;;;;;;3.20;1.08;;;;;;;12.51;65.59;99350.91;5058928;28;20048;-71
2021/05/21 01:47:11;;;;;;;2.72;0.90;;;;;;;12.43;65.91;99339.97;5058871;28;20057;-69
2021/05/21 01:49:38;;;;;;;1.95;0.85;;;;;;;12.46;65.42;99345.94;5058648;28;20041;-70
2021/05/21 01:52:05;;;;;;;2.80;0.82;;;;;;;12.39;65.92;99335.84;5058514;28;20351;-69
2021/05/21 01:54:32;;;;;;;2.90;0.88;;;;;;;12.47;65.35;99336.06;5057542;28;20426;-71
2021/05/21 01:57:01;;;;;;;3.28;0.90;;;;;;;12.38;64.86;99318.09;5058557;28;20102;-71
2021/05/21 01:59:28;;;;;;;5.95;1.35;;;;;;;12.49;65.49;99326.09;5058641;28;20060;-71
2021/05/21 02:01:55;;;;;;;7.32;0.98;;;;;;;12.43;65.10;99319.41;5058545;28;20052;-71
2021/05/21 02:04:39;;;;;;;3.08;0.98;;;;;;;12.45;65.28;99332.66;5058348;28;20422;-71
2021/05/21 02:07:12;;;;;;;1.73;0.77;;;;;;;12.42;64.76;99325.75;5058323;28;20060;-71
2021/05/21 02:10:11;;;;;;;2.17;0.70;;;;;;;12.43;64.67;99323.94;5058254;28;20053;-71
2021/05/21 02:12:42;;;;;;;2.75;1.30;;;;;;;12.34;64.90;99314.81;5055536;28;20053;-73
2021/05/21 02:15:09;;;;;;;1.63;0.82;;;;;;;12.38;65.07;99318.09;5057093;28;20052;-71
2021/05/21 02:17:36;;;;;;;2.17;0.70;;;;;;;12.36;65.63;99320.88;5055336;28;20355;-70
2021/05/21 02:20:04;;;;;;;5.28;1.35;;;;;;;12.23;65.80;99305.00;5037980;28;20045;-70
2021/05/21 02:22:32;;;;;;;7.00;0.98;;;;;;;12.27;65.50;99316.31;5038204;28;20053;-70
2021/05/21 02:25:00;;;;;;;4.38;0.90;;;;;;;12.26;65.54;99319.97;5038264;28;20049;-70
2021/05/21 02:27:28;;;;;;;2.47;0.88;;;;;;;12.23;65.51;99315.72;5038128;28;20053;-70
2021/05/21 02:29:55;;;;;;;6.07;0.88;;;;;;;12.21;65.18;99306.97;5037993;28;20057;-70
2021/05/21 02:32:22;;;;;;;3.75;0.70;;;;;;;12.23;65.45;99299.66;5036815;28;20053;-70
2021/05/21 02:34:49;;;;;;;1.52;0.70;;;;;;;12.20;65.75;99300.75;5038104;28;20049;-70
2021/05/21 02:37:17;;;;;;;4.72;0.90;;;;;;;12.15;66.23;99299.44;5036977;28;20362;-70
2021/05/21 02:39:43;;;;;;;5.38;0.90;;;;;;;12.07;66.01;99292.03;5037927;28;20642;-70
2021/05/21 02:42:10;;;;;;;2.70;0.82;;;;;;;12.10;66.25;99302.50;5037342;28;20114;-72
2021/05/21 02:44:38;;;;;;;4.90;1.10;;;;;;;12.07;66.42;99297.38;5037277;28;20108;-69
2021/05/21 02:47:05;;;;;;;4.68;1.00;;;;;;;12.05;66.43;99289.47;5036404;28;20107;-69
2021/05/21 02:49:34;;;;;;;6.97;1.40;;;;;;;12.08;66.22;99296.41;5037924;28;20057;-69
2021/05/21 02:52:00;;;;;;;3.08;1.10;;;;;;;12.05;66.70;99288.63;5037826;28;20099;-69
2021/05/21 02:54:27;;;;;;;4.05;0.80;;;;;;;12.01;67.08;99292.50;5037829;28;20060;-70
2021/05/21 02:56:54;;;;;;;2.45;0.80;;;;;;;11.99;67.04;99286.44;5037716;28;20057;-70
2021/05/21 02:59:21;;;;;;;2.35;1.00;;;;;;;11.97;66.77;99283.88;5037642;28;20095;-70
2021/05/21 03:01:48;;;;;;;3.08;0.90;;;;;;;11.92;66.75;99273.56;5037288;28;20057;-70
2021/05/21 03:04:15;;;;;;;6.75;1.27;;;;;;;11.98;66.84;99280.22;5037284;28;20053;-70
2021/05/21 03:06:41;;;;;;;3.17;0.85;;;;;;;11.96;67.02;99274.16;5037460;28;20100;-70
2021/05/21 03:09:08;;;;;;;6.38;1.02;;;;;;;11.95;66.72;99275.13;5036164;28;20054;-70
2021/05/21 03:11:35;;;;;;;6.38;0.80;;;;;;;11.88;67.43;99265.91;5037079;28;20466;-70
2021/05/21 03:14:01;;;;;;;4.78;0.93;;;;;;;11.80;67.99;99271.88;5037403;28;20049;-70
2021/05/21 03:16:28;;;;;;;7.50;1.05;;;;;;;11.79;67.93;99276.38;5036920;28;20045;-70
2021/05/21 03:18:55;;;;;;;6.40;1.00;;;;;;;11.78;68.06;99284.53;5050542;28;20056;-71
2021/05/21 03:21:22;;;;;;;3.65;0.98;;;;;;;11.81;67.91;99273.56;5057091;28;20386;-70
2021/05/21 03:23:49;;;;;;;1.75;0.80;;;;;;;11.73;68.71;99266.19;5056861;28;20045;-70
2021/05/21 03:26:15;;;;;;;3.80;1.10;;;;;;;11.70;68.30;99262.91;5056084;28;20052;-70
2021/05/21 03:28:42;;;;;;;4.65;0.80;;;;;;;11.67;68.97;99251.47;5055961;28;20052;-70
2021/05/21 03:31:09;;;;;;;6.55;0.90;;;;;;;11.61;69.27;99251.13;5056771;28;20045;-71
2021/05/21 03:33:36;;;;;;;4.72;1.00;;;;;;;11.58;69.37;99249.53;5056554;28;20122;-70
2021/05/21 03:36:04;;;;;;;5.75;1.10;;;;;;;11.56;69.65;99251.50;5056983;28;20060;-71
2021/05/21 03:38:31;;;;;;;1.35;0.73;;;;;;;11.51;70.08;99251.84;5056861;28;20076;-71
2021/05/21 03:40:58;;;;;;;2.95;1.00;;;;;;;11.47;69.93;99238.84;5055750;28;20346;-71
2021/05/21 03:43:24;;;;;;;5.22;1.55;;;;;;;11.44;70.24;99228.41;5056289;28;20060;-71
2021/05/21 03:45:51;;;;;;;3.65;1.10;;;;;;;11.53;70.01;99239.22;5055654;28;20071;-71
2021/05/21 03:48:18;;;;;;;2.97;0.82;;;;;;;11.52;70.60;99232.19;5039066;28;20053;-71
2021/05/21 03:50:44;;;;;;;4.53;0.80;;;;;;;11.59;69.77;99234.38;5056288;28;20061;-71
2021/05/21 03:53:11;;;;;;;4.32;1.17;;;;;;;11.62;69.39;99234.09;5056319;28;20049;-71
2021/05/21 03:55:38;;;;;;;5.55;1.00;;;;;;;11.66;69.38;99236.41;5055196;28;20628;-71
2021/05/21 03:58:05;;;;;;;3.08;0.88;;;;;;;11.65;69.95;99233.84;5056061;28;20083;-71
2021/05/21 04:00:31;;;;;;;2.55;0.95;;;;;;;11.65;69.72;99239.19;5056437;28;20395;-70
2021/05/21 04:02:58;;;;;;;5.72;0.93;;;;;;;11.71;70.09;99233.34;5056401;28;20044;-71
2021/05/21 04:05:25;;;;;;;4.20;1.17;;;;;;;11.72;69.88;99231.53;5056218;28;20052;-71
2021/05/21 04:07:52;;;;;;;6.38;1.45;;;;;;;11.74;70.21;99225.09;5056064;28;20079;-71
2021/05/21 04:10:18;;;;;;;3.47;0.70;;;;;;;11.73;69.87;99228.75;5053851;28;20048;-70
2021/05/21 04:12:45;;;;;;;3.45;1.17;;;;;;;11.73;70.29;99219.88;5036019;28;20046;-71
2021/05/21 04:15:12;;;;;;;4.53;1.17;;;;;;;11.73;70.13;99220.72;5035265;28;20049;-72
2021/05/21 04:17:39;;;;;;;2.85;0.85;;;;;;;11.73;69.92;99209.19;5039248;28;20055;-69
2021/05/21 04:20:06;;;;;;;6.25;0.90;;;;;;;11.69;69.97;99208.59;5038212;28;20045;-69
2021/05/21 04:22:33;;;;;;;3.47;0.90;;;;;;;11.73;70.26;99214.53;5055922;28;20122;-69
2021/05/21 04:25:00;;;;;;;4.45;1.10;;;;;;;11.67;70.19;99210.53;5055959;28;20053;-73
2021/05/21 04:27:26;;;;;;;1.80;0.85;;;;;;;11.70;70.09;99218.28;5055843;28;20056;-72
2021/05/21 04:29:53;;;;;;;3.60;0.85;;;;;;;11.74;69.85;99213.53;5056005;28;20053;-72
2021/05/21 04:32:20;;;;;;;4.00;1.20;;;;;;;11.75;70.52;99215.25;5036369;28;20443;-71
2021/05/21 04:34:47;;;;;;;8.32;1.08;;;;;;;11.79;69.85;99222.91;5035708;28;20442;-70
2021/05/21 04:37:14;;;;;;;4.85;1.08;;;;;;;11.85;69.80;99213.53;5036128;28;20049;-71
2021/05/21 04:39:40;;;;;;;9.55;1.15;;;;;;;11.94;69.59;99217.28;5034623;28;20106;-71
2021/05/21 04:42:07;;;;;;;6.47;1.27;;;;;;;12.04;69.39;99214.72;5035359;28;20076;-71
2021/05/21 04:44:34;;;;;;;6.53;1.92;;;;;;;12.09;69.31;99202.66;5035752;28;20057;-70
2021/05/21 04:47:01;;;;;;;4.35;1.75;;;;;;;12.17;69.20;99209.19;5035805;28;20053;-71
2021/05/21 04:49:35;;;;;;;1.50;0.82;;;;;;;12.24;68.82;99212.22;5034707;28;20401;-74
2021/05/21 04:52:05;;;;;;;5.88;1.17;;;;;;;12.20;68.88;99208.97;5035707;28;20053;-72
2021/05/21 04:54:37;;;;;;;2.80;1.05;;;;;;;12.24;68.01;99215.75;5042265;28;20136;-72
2021/05/21 04:57:05;;;;;;;3.92;1.45;;;;;;;12.38;68.17;99209.25;5049288;28;20055;-71
2021/05/21 04:59:32;;;;;;;3.97;1.08;;;;;;;12.45;68.57;99206.88;5053539;28;20045;-72
2021/05/21 05:01:59;;;;;;;4.82;1.60;;;;;;;12.39;67.80;99199.38;5053983;28;20044;-71
2021/05/21 05:04:26;;;;;;;5.38;0.98;;;;;;;12.48;67.96;99201.28;5052991;28;20110;-72
2021/05/21 05:06:52;;;;;;;3.20;1.00;;;;;;;12.45;67.79;99209.56;5053511;28;20049;-71
2021/05/21 05:09:19;;;;;;;12.75;1.38;;;;;;;12.35;68.13;99190.75;5053884;28;20056;-72
2021/05/21 05:11:49;;;;;;;3.67;1.00;;;;;;;12.39;69.03;99188.66;5054034;28;20049;-72
2021/05/21 05:14:15;;;;;;;4.32;1.15;;;;;;;12.38;67.60;99190.50;5049724;28;20770;-71
2021/05/21 05:16:42;;;;;;;8.60;1.50;;;;;;;12.30;67.78;99191.16;5040338;28;20045;-70
2021/05/21 05:19:09;;;;;;;4.50;1.30;;;;;;;12.28;67.70;99179.75;5050380;28;20057;-71
2021/05/21 05:21:42;;;;;;;5.78;1.20;;;;;;;12.27;68.50;99180.72;5053931;28;20067;-71
2021/05/21 05:24:16;;;;;;;7.07;1.33;;;;;;;12.33;67.54;99182.84;5034925;28;20057;-76
2021/05/21 05:26:43;;;;;;;4.82;1.30;;;;;;;12.31;67.79;99187.50;5035079;28;20046;-75
2021/05/21 05:29:10;;;;;;;3.28;1.20;;;;;;;12.38;68.23;99174.47;5035197;28;20053;-72
2021/05/21 05:31:38;;;;;;;3.60;1.10;;;;;;;12.35;67.95;99180.91;5035015;28;20046;-74
2021/05/21 05:34:05;;;;;;;5.63;1.58;;;;;;;12.34;67.89;99189.06;5034833;28;20081;-72
2021/05/21 05:36:34;;;;;;;4.82;1.13;;;;;;;12.31;67.64;99173.28;5037545;28;20041;-72
2021/05/21 05:39:01;;;;;;;5.88;1.25;;;;;;;12.24;68.09;99167.59;5045676;28;20076;-71
2021/05/21 05:41:27;;;;;;;10.00;1.63;;;;;;;12.27;67.77;99155.78;5044373;28;20082;-71
2021/05/21 05:43:54;;;;;;;7.45;1.50;;;;;;;12.28;67.68;99163.69;5043503;28;20057;-71
2021/05/21 05:46:22;;;;;;;9.18;1.58;;;;;;;12.43;67.30;99171.38;5042854;28;20073;-70
2021/05/21 05:48:49;;;;;;;5.85;1.60;;;;;;;12.39;67.52;99164.59;5040307;28;20398;-71
2021/05/21 05:51:16;;;;;;;4.72;1.15;;;;;;;12.33;67.64;99169.47;5040251;28;20439;-71
2021/05/21 05:53:43;;;;;;;5.50;1.70;;;;;;;12.32;67.85;99166.94;5033290;28;20053;-71
2021/05/21 05:56:10;;;;;;;6.80;1.67;;;;;;;12.32;68.07;99170.47;5044871;28;20061;-74
2021/05/21 05:58:37;;;;;;;8.63;1.67;;;;;;;12.25;67.72;99171.13;5044360;28;20053;-73
2021/05/21 06:01:04;;;;;;;10.05;2.22;;;;;;;12.20;67.91;99166.16;5045048;28;20049;-77
2021/05/21 06:03:31;;;;;;;8.43;1.50;;;;;;;12.26;67.96;99170.97;5044701;28;20045;-74
2021/05/21 06:05:58;;;;;;;9.68;1.70;;;;;;;12.31;68.12;99167.94;5043273;28;20053;-71
2021/05/21 06:08:25;;;;;;;6.25;1.27;;;;;;;12.31;68.02;99167.94;5043027;28;20053;-74
2021/05/21 06:10:53;;;;;;;10.15;2.13;;;;;;;12.20;67.18;99155.47;5047800;28;20049;-71
2021/05/21 06:13:25;;;;;;;9.23;1.63;;;;;;;12.20;67.31;99158.13;5044818;28;20055;-73
2021/05/21 06:15:52;;;;;;;10.18;1.52;;;;;;;12.18;68.10;99147.56;5034658;28;20053;-70
2021/05/21 06:18:19;;;;;;;11.90;3.20;;;;;;;12.26;67.89;99159.44;5044030;28;20056;-71
2021/05/21 06:20:46;;;;;;;8.80;1.90;;;;;;;12.34;67.70;99151.59;5057892;28;20060;-71
2021/05/21 06:23:13;;;;;;;8.02;2.00;;;;;;;12.31;67.25;99163.41;5056713;28;20442;-71
2021/05/21 06:28:16;;;;;;;12.32;1.42;;;;;;;12.31;67.70;99152.72;5056928;28;20061;-72
2021/05/21 06:30:43;;;;;;;9.15;2.30;;;;;;;12.30;66.68;99161.72;5057407;28;20068;-71
2021/05/21 06:33:10;;;;;;;9.02;1.90;;;;;;;12.31;67.16;99162.59;5057247;28;20492;-70
2021/05/21 06:35:36;;;;;;;11.65;2.00;;;;;;;12.35;66.81;99164.00;5057361;28;20464;-71
2021/05/21 06:38:04;;;;;;;14.82;2.33;;;;;;;12.43;65.48;99150.81;5057636;28;20053;-70
2021/05/21 06:40:31;;;;;;;8.85;2.08;;;;;;;12.46;65.26;99157.72;5056837;28;20389;-72
2021/05/21 06:42:58;;;;;;;17.00;2.20;;;;;;;12.46;64.74;99171.13;5056405;28;20057;-72
2021/05/21 06:45:24;;;;;;;12.40;2.33;;;;;;;12.59;65.04;99169.09;5057513;28;20049;-72
2021/05/21 06:47:51;;;;;;;12.05;2.03;;;;;;;12.58;64.00;99158.53;5057606;28;20053;-71
2021/05/21 06:50:18;;;;;;;16.58;2.20;;;;;;;12.57;64.29;99165.72;5057005;28;20067;-71
2021/05/21 06:52:44;;;;;;;10.80;1.92;;;;;;;12.57;63.65;99163.03;5056519;28;20430;-71
2021/05/21 06:55:12;;;;;;;14.43;2.38;;;;;;;12.61;63.54;99156.44;5055651;28;20056;-71
2021/05/21 06:57:39;;;;;;;15.15;2.45;;;;;;;12.66;61.75;99156.03;5057150;28;20183;-71
2021/05/21 07:00:06;;;;;;;13.10;2.20;;;;;;;12.78;61.79;99164.84;5057347;28;20057;-71
2021/05/21 07:02:33;;;;;;;13.00;2.15;;;;;;;12.74;61.16;99161.56;5056284;28;20434;-71
2021/05/21 07:05:00;;;;;;;14.45;3.08;;;;;;;12.79;61.37;99166.53;5057166;28;20053;-72
2021/05/21 07:07:31;;;;;;;16.88;2.97;;;;;;;12.66;60.98;99169.44;5057201;28;20349;-72
2021/05/21 07:09:59;;;;;;;16.17;2.22;;;;;;;12.52;61.07;99164.41;5057246;28;20059;-73
2021/05/21 07:12:29;;;;;;;11.15;2.40;;;;;;;12.39;61.10;99167.25;5057057;28;20057;-71
2021/05/21 07:14:57;;;;;;;13.80;2.50;;;;;;;12.32;62.68;99175.81;5057081;28;20499;-71
2021/05/21 07:17:24;;;;;;;11.82;2.17;;;;;;;12.11;61.50;99154.41;5056098;28;20052;-71
2021/05/21 07:19:51;;;;;;;15.90;2.65;;;;;;;12.22;61.32;99167.72;5037127;28;20053;-71
2021/05/21 07:22:17;;;;;;;16.92;2.85;;;;;;;12.32;61.23;99175.81;5036778;28;20057;-71
2021/05/21 07:24:44;;;;;;;15.45;2.75;;;;;;;12.54;61.13;99170.47;5036980;28;20140;-71
2021/05/21 07:27:11;;;;;;;11.80;2.63;;;;;;;12.57;60.45;99172.88;5037137;28;20103;-71
2021/05/21 07:29:37;;;;;;;14.02;2.53;;;;;;;12.57;59.97;99179.09;5036831;28;20064;-71
2021/05/21 07:32:09;;;;;;;22.33;2.83;;;;;;;12.44;59.75;99171.25;5036779;28;20041;-71
2021/05/21 07:34:36;;;;;;;23.58;4.55;;;;;;;12.32;58.27;99167.78;5036707;28;20144;-71
2021/05/21 07:37:03;;;;;;;17.50;2.97;;;;;;;12.40;58.92;99182.34;5037063;28;20107;-71
2021/05/21 07:39:35;;;;;;;15.35;2.70;;;;;;;12.53;57.51;99171.47;5037009;28;20053;-72
2021/05/21 07:42:02;;;;;;;21.33;3.90;;;;;;;12.62;57.02;99176.88;5036592;28;20049;-72
2021/05/21 07:44:29;;;;;;;19.23;3.10;;;;;;;12.73;55.88;99161.69;5036686;28;20351;-71
2021/05/21 07:46:56;;;;;;;14.75;2.83;;;;;;;12.69;56.40;99168.31;5036530;28;20063;-71
2021/05/21 07:49:24;;;;;;;15.63;2.53;;;;;;;12.78;57.48;99154.13;5036401;28;20050;-71
2021/05/21 07:51:53;;;;;;;19.40;2.65;;;;;;;12.74;57.54;99164.25;5036382;28;20049;-71
2021/05/21 07:54:20;;;;;;;16.42;2.50;;;;;;;12.72;55.78;99162.69;5036332;28;20339;-71
2021/05/21 07:56:47;;;;;;;14.75;2.95;;;;;;;12.73;56.06;99156.34;5036441;28;20346;-72
2021/05/21 07:59:15;;;;;;;13.10;3.10;;;;;;;12.80;55.80;99162.88;5036830;28;20111;-70
2021/05/21 08:01:42;;;;;;;18.05;2.92;;;;;;;12.85;54.97;99155.28;5035456;28;20342;-70
2021/05/21 08:04:08;;;;;;;13.35;2.60;;;;;;;12.96;53.95;99151.66;5036571;28;20111;-70
2021/05/21 08:06:35;;;;;;;14.27;2.75;;;;;;;12.94;54.25;99156.31;5036157;28;20084;-70
2021/05/21 08:09:05;;;;;;;15.48;2.65;;;;;;;13.07;54.10;99155.25;5036165;28;20427;-70
2021/05/21 08:11:32;;;;;;;22.58;3.08;;;;;;;13.03;53.41;99163.53;5036434;28;20041;-70
2021/05/21 08:13:59;;;;;;;15.48;2.70;;;;;;;13.01;52.87;99152.13;5035169;28;20434;-72
2021/05/21 08:16:29;;;;;;;15.52;2.63;;;;;;;13.09;54.06;99156.81;5036440;28;20346;-72
2021/05/21 08:18:57;;;;;;;15.25;3.13;;;;;;;13.18;53.67;99161.34;5049064;28;20049;-71
2021/05/21 08:21:25;;;;;;;18.63;3.38;;;;;;;13.29;52.87;99162.25;5054911;28;20049;-71
2021/05/21 08:23:52;;;;;;;13.75;2.47;;;;;;;13.38;50.93;99166.78;5056355;28;20049;-71
2021/05/21 08:26:24;;;;;;;18.77;2.85;;;;;;;13.54;51.65;99168.13;5057195;28;20072;-71
2021/05/21 08:28:55;;;;;;;12.02;2.65;;;;;;;13.67;50.48;99152.63;5059055;28;20178;-71
2021/05/21 08:31:23;;;;;;;11.35;2.25;;;;;;;13.71;49.80;99156.72;5060023;28;20056;-71
2021/05/21 08:33:50;;;;;;;16.40;3.13;;;;;;;13.69;48.85;99153.31;5060259;28;20340;-71
2021/05/21 08:36:17;;;;;;;13.32;2.38;;;;;;;13.79;48.29;99152.50;5038376;28;20052;-71
2021/05/21 08:38:45;;;;;;;12.50;3.33;;;;;;;13.96;49.03;99149.13;5059332;28;20080;-71
2021/05/21 08:41:23;;;;;;;22.73;3.30;;;;;;;14.11;48.69;99159.44;5057637;28;20049;-72
2021/05/21 08:43:51;;;;;;;14.88;2.90;;;;;;;14.28;49.12;99148.97;5055369;28;20053;-72
2021/05/21 08:46:20;;;;;;;20.17;2.70;;;;;;;14.15;49.20;99150.09;5055935;28;20049;-71
2021/05/21 08:48:47;;;;;;;19.35;3.30;;;;;;;14.21;49.07;99164.78;5056106;28;20056;-71
2021/05/21 08:51:15;;;;;;;13.95;2.70;;;;;;;14.10;50.33;99145.19;5055776;28;20044;-72
2021/05/21 08:53:49;;;;;;;14.38;3.28;;;;;;;14.17;50.33;99161.53;5055622;28;20049;-72
2021/05/21 08:56:16;;;;;;;15.48;2.97;;;;;;;14.03;51.13;99141.38;5055667;28;20049;-71
2021/05/21 08:58:44;;;;;;;10.95;2.53;;;;;;;13.79;51.87;99163.22;5054560;28;20051;-70
2021/05/21 09:01:11;;;;;;;11.15;2.75;;;;;;;13.74;53.47;99169.03;5054593;28;20048;-71
2021/05/21 09:03:38;;;;;;;20.42;3.08;;;;;;;13.62;53.26;99173.63;5054501;28;20052;-70
2021/05/21 09:06:13;;;;;;;12.65;2.67;;;;;;;13.49;53.19;99175.72;5055372;28;20057;-70
2021/05/21 09:08:48;;;;;;;13.95;2.58;;;;;;;13.65;53.66;99170.69;5055119;28;20072;-70
2021/05/21 09:11:21;;;;;;;12.77;2.70;;;;;;;14.05;52.46;99162.69;5055523;28;20048;-71
2021/05/21 09:13:50;;;;;;;14.85;2.90;;;;;;;14.38;50.65;99155.16;5055602;28;20327;-70
2021/05/21 09:16:25;;;;;;;16.27;3.35;;;;;;;14.62;50.51;99164.59;5055324;28;20057;-71
2021/05/21 09:19:09;;;;;;;14.98;2.58;;;;;;;14.49;49.43;99167.63;5041801;28;20053;-71
2021/05/21 09:21:56;;;;;;;16.42;3.08;;;;;;;14.51;48.60;99174.50;5035058;28;20056;-70
2021/05/21 09:24:32;;;;;;;19.73;3.22;;;;;;;14.61;48.21;99168.28;5035057;28;20350;-71
2021/05/21 09:27:00;;;;;;;12.13;2.67;;;;;;;14.53;48.32;99150.22;5035317;28;20057;-71
2021/05/21 09:29:53;;;;;;;14.90;2.80;;;;;;;14.58;47.86;99164.06;5034073;28;20084;-70
2021/05/21 09:32:31;;;;;;;16.92;3.78;;;;;;;14.51;47.69;99142.28;5033948;28;20076;-71
2021/05/21 09:35:01;;;;;;;16.05;3.90;;;;;;;14.85;48.61;99156.22;5034172;28;20076;-70
2021/05/21 09:37:28;;;;;;;12.35;2.88;;;;;;;15.25;48.57;99149.72;5034926;28;20061;-71
2021/05/21 09:40:06;;;;;;;13.05;2.72;;;;;;;15.00;48.49;99146.72;5035249;28;20053;-71
2021/05/21 09:43:03;;;;;;;19.25;3.80;;;;;;;15.11;49.31;99163.63;5034832;28;20133;-71
2021/05/21 09:45:35;;;;;;;9.80;2.80;;;;;;;15.00;47.71;99160.16;5022633;28;20081;-71
2021/05/21 09:48:07;;;;;;;19.67;3.50;;;;;;;14.73;47.80;99166.28;5034773;28;20060;-71
2021/05/21 09:50:48;;;;;;;15.40;3.00;;;;;;;14.58;47.03;99184.66;5034908;28;20077;-71
2021/05/21 09:53:21;;;;;;;;;;;;;;;14.41;48.38;99173.69;5037805;28;20042;-70
2021/05/21 09:55:56;;;;;;;16.88;2.95;;;;;;;14.73;47.00;99183.25;5038802;28;20016;-71
2021/05/21 09:58:44;;;;;;;11.07;2.20;;;;;;;15.04;46.52;99160.72;5038748;28;20140;-71
2021/05/21 10:01:19;;;;;;;9.18;2.22;;;;;;;14.74;45.22;99155.44;5037351;28;20091;-71
2021/05/21 10:03:53;;;;;;;17.70;2.80;;;;;;;14.52;46.29;99172.69;5037594;28;20054;-71
2021/05/21 10:06:22;;;;;;;13.38;2.83;;;;;;;14.42;47.95;99174.53;5038650;28;20049;-70
2021/05/21 10:08:51;;;;;;;17.02;3.25;;;;;;;14.32;48.64;99179.91;5038309;28;20049;-71
2021/05/21 10:11:18;;;;;;;11.70;2.33;;;;;;;14.32;48.46;99170.00;5038310;28;20055;-70
2021/05/21 10:13:46;;;;;;;12.05;2.42;;;;;;;14.50;47.11;99182.72;5037438;28;20060;-70
2021/05/21 10:16:21;;;;;;;13.50;2.00;;;;;;;14.70;46.37;99159.34;5038299;28;20053;-70
2021/05/21 10:18:49;;;;;;;15.35;2.67;;;;;;;14.95;45.58;99154.38;5049390;28;20473;-71
2021/05/21 10:21:17;;;;;;;12.48;2.13;;;;;;;15.25;45.10;99165.84;5058002;28;20056;-70
2021/05/21 10:23:55;;;;;;;13.30;2.60;;;;;;;15.02;44.39;99152.78;5057180;28;20076;-70
2021/05/21 10:26:33;;;;;;;14.30;2.83;;;;;;;15.40;44.06;99143.81;5058318;28;20132;-70
2021/05/21 10:29:05;;;;;;;15.05;2.72;;;;;;;15.67;44.60;99155.56;5057060;28;20056;-70
2021/05/21 10:31:32;;;;;;;12.57;3.00;;;;;;;15.85;44.38;99140.28;5058031;28;20053;-70
2021/05/21 10:34:16;;;;;;;14.95;2.70;;;;;;;15.66;43.62;99132.34;5058051;28;20048;-71
2021/05/21 10:36:43;;;;;;;9.55;2.17;;;;;;;15.70;43.73;99148.03;5057826;28;20339;-71
2021/05/21 10:39:19;;;;;;;12.40;2.67;;;;;;;15.92;44.85;99145.09;5057920;28;20110;-71
2021/05/21 10:41:54;;;;;;;12.02;3.30;;;;;;;15.88;44.68;99145.38;5057703;28;20045;-70
2021/05/21 10:44:23;;;;;;;11.00;2.40;;;;;;;16.14;44.27;99130.31;5057386;28;20114;-71
2021/05/21 10:46:51;;;;;;;9.57;2.40;;;;;;;16.46;44.54;99131.59;5057650;28;20057;-71
2021/05/21 10:49:25;;;;;;;11.63;2.40;;;;;;;16.29;41.93;99114.47;5057482;28;20446;-71
2021/05/21 10:52:00;;;;;;;11.90;2.45;;;;;;;15.94;42.83;99135.00;5057589;28;20056;-71
2021/05/21 10:54:35;;;;;;;15.20;2.30;;;;;;;15.93;42.81;99126.09;5057781;28;20052;-71
2021/05/21 10:57:13;;;;;;;12.85;2.45;;;;;;;15.63;43.05;99135.34;5057432;28;20457;-71
2021/05/21 10:59:55;;;;;;;20.13;3.50;;;;;;;15.51;43.45;99116.75;5057413;28;20049;-71
2021/05/21 11:02:22;;;;;;;9.80;2.63;;;;;;;15.26;45.43;99119.13;5057426;28;20072;-71
2021/05/21 11:04:51;;;;;;;16.38;2.70;;;;;;;15.11;44.82;99126.00;5056583;28;20049;-71
2021/05/21 11:07:45;;;;;;;8.65;2.20;;;;;;;14.78;45.78;99095.03;5056168;28;20071;-71
2021/05/21 11:10:33;;;;;;;15.27;2.60;;;;;;;14.93;46.83;99114.22;5054619;28;20053;-71
2021/05/21 11:13:10;;;;;;;10.02;2.50;;;;;;;15.56;46.90;99105.53;5057206;28;20071;-71
2021/05/21 11:15:36;;;;;;;12.65;3.30;;;;;;;16.32;44.72;99106.06;5057053;28;20052;-71
2021/05/21 11:18:12;;;;;;;14.95;2.50;;;;;;;16.51;43.77;99096.09;5050758;28;20453;-71
2021/05/21 11:20:52;;;;;;;13.73;2.85;;;;;;;17.06;44.38;99104.84;5037045;28;20057;-71
2021/05/21 11:23:26;;;;;;;16.20;2.50;;;;;;;16.84;41.52;99115.16;5037052;28;20045;-71
2021/05/21 11:26:14;;;;;;;13.98;2.60;;;;;;;16.94;41.75;99109.63;5035857;28;20052;-71
2021/05/21 11:28:44;;;;;;;10.75;2.20;;;;;;;16.78;41.11;99096.94;5036239;28;20107;-72
2021/05/21 11:31:19;;;;;;;13.77;2.70;;;;;;;17.10;42.39;99100.78;5037000;28;20056;-71
2021/05/21 11:33:48;;;;;;;11.60;2.55;;;;;;;16.95;41.37;99103.25;5037022;28;20049;-71
2021/05/21 11:36:15;;;;;;;11.95;2.45;;;;;;;17.10;41.91;99108.88;5036774;28;20107;-71
2021/05/21 11:38:42;;;;;;;12.43;2.67;;;;;;;17.42;41.39;99099.22;5036915;28;20053;-72
2021/05/21 11:41:11;;;;;;;10.80;2.50;;;;;;;16.91;41.60;99086.53;5036785;28;20057;-71